createdAt,value
2018-07-25T00:00:22.476Z,65.46
2018-07-25T00:02:50.791Z,65.50
2018-07-25T00:05:19.588Z,66.60
2018-07-25T00:07:47.959Z,66.48
2018-07-25T00:10:16.190Z,67.20
2018-07-25T00:12:44.551Z,66.85
2018-07-25T00:15:12.949Z,66.47
2018-07-25T00:17:41.276Z,68.19
2018-07-25T00:20:09.461Z,68.08
2018-07-25T00:22:37.696Z,67.77
2018-07-25T00:25:06.121Z,66.67
2018-07-25T00:27:34.515Z,67.49
2018-07-25T00:30:02.773Z,66.97
2018-07-25T00:32:31.074Z,66.04
2018-07-25T00:34:59.363Z,66.86
2018-07-25T00:37:27.671Z,67.52
2018-07-25T00:39:56.166Z,68.23
2018-07-25T00:42:24.456Z,68.47
2018-07-25T00:44:52.742Z,69.10
2018-07-25T00:47:21.179Z,67.89
2018-07-25T00:49:49.457Z,68.27
2018-07-25T00:52:17.734Z,68.83
2018-07-25T00:54:46.188Z,69.34
2018-07-25T00:57:14.383Z,68.97
2018-07-25T00:59:42.708Z,67.10
2018-07-25T01:02:10.910Z,69.08
2018-07-25T01:04:39.144Z,66.07
2018-07-25T01:07:07.607Z,67.25
2018-07-25T01:09:35.920Z,66.88
2018-07-25T01:12:04.192Z,68.02
2018-07-25T01:14:32.711Z,68.65
2018-07-25T01:17:00.971Z,67.70
2018-07-25T01:19:29.148Z,68.85
2018-07-25T01:21:57.408Z,69.72
2018-07-25T01:24:25.698Z,70.31
2018-07-25T01:26:53.994Z,69.79
2018-07-25T01:29:22.253Z,70.76
2018-07-25T01:31:50.567Z,71.01
2018-07-25T01:34:18.836Z,70.40
2018-07-25T01:36:47.135Z,70.98
2018-07-25T01:39:15.410Z,71.52
2018-07-25T01:41:43.711Z,71.71
2018-07-25T01:44:12.191Z,72.19
2018-07-25T01:46:40.541Z,72.24
2018-07-25T01:49:08.864Z,73.51
2018-07-25T01:51:37.963Z,73.64
2018-07-25T01:54:06.307Z,73.87
2018-07-25T01:56:34.548Z,74.44
2018-07-25T01:59:02.832Z,74.19
2018-07-25T02:01:31.169Z,74.50
2018-07-25T02:03:59.367Z,73.81
2018-07-25T02:06:27.798Z,72.25
2018-07-25T02:08:57.068Z,72.60
2018-07-25T02:11:25.351Z,72.78
2018-07-25T02:13:53.573Z,72.62
2018-07-25T02:16:22.279Z,73.13
2018-07-25T02:18:50.735Z,73.66
2018-07-25T02:21:19.029Z,72.69
2018-07-25T02:23:47.264Z,73.48
2018-07-25T02:26:15.505Z,74.79
2018-07-25T02:28:43.873Z,75.20
2018-07-25T02:31:12.150Z,73.78
2018-07-25T02:33:45.512Z,74.26
2018-07-25T02:36:13.791Z,73.37
2018-07-25T02:38:42.010Z,74.73
2018-07-25T02:41:10.440Z,75.72
2018-07-25T02:43:38.757Z,76.76
2018-07-25T02:46:07.561Z,77.89
2018-07-25T02:48:35.775Z,77.14
2018-07-25T02:51:04.100Z,76.31
2018-07-25T02:53:32.382Z,75.97
2018-07-25T02:56:00.794Z,75.55
2018-07-25T02:58:29.093Z,76.21
2018-07-25T03:00:57.358Z,76.70
2018-07-25T03:03:25.596Z,77.24
2018-07-25T03:05:53.819Z,77.13
2018-07-25T03:08:22.130Z,77.30
2018-07-25T03:10:56.119Z,77.01
2018-07-25T03:13:25.019Z,78.29
2018-07-25T03:15:59.700Z,78.73
2018-07-25T03:18:28.343Z,79.22
2018-07-25T03:20:57.033Z,78.96
2018-07-25T03:23:25.389Z,80.25
2018-07-25T03:25:53.874Z,79.31
2018-07-25T03:28:22.186Z,79.94
2018-07-25T03:30:50.578Z,80.04
2018-07-25T03:33:18.976Z,79.24
2018-07-25T03:35:47.195Z,79.01
2018-07-25T03:38:15.589Z,78.89
2018-07-25T03:40:44.069Z,77.77
2018-07-25T03:43:12.404Z,77.76
2018-07-25T03:45:40.822Z,78.31
2018-07-25T03:48:09.119Z,77.81
2018-07-25T03:50:37.684Z,78.04
2018-07-25T03:53:06.345Z,79.34
2018-07-25T03:55:34.631Z,78.48
2018-07-25T03:58:03.012Z,78.48
2018-07-25T04:00:31.322Z,78.84
2018-07-25T04:02:59.752Z,78.96
2018-07-25T04:05:28.145Z,80.24
2018-07-25T04:07:56.440Z,81.35
2018-07-25T04:10:24.716Z,79.12
2018-07-25T04:12:53.979Z,79.69
2018-07-25T04:15:22.316Z,78.85
2018-07-25T04:17:50.649Z,78.24
2018-07-25T04:20:19.864Z,76.84
2018-07-25T04:22:48.149Z,77.86
2018-07-25T04:25:16.514Z,78.53
2018-07-25T04:27:46.120Z,79.16
2018-07-25T04:30:15.807Z,78.83
2018-07-25T04:32:44.630Z,79.22
2018-07-25T04:35:14.219Z,79.06
2018-07-25T04:37:43.842Z,77.93
2018-07-25T04:40:12.248Z,77.89
2018-07-25T04:42:41.026Z,79.69
2018-07-25T04:45:10.717Z,79.43
2018-07-25T04:47:39.262Z,78.72
2018-07-25T04:50:07.971Z,78.45
2018-07-25T04:52:36.562Z,78.41
2018-07-25T04:55:05.013Z,78.41
2018-07-25T04:57:33.416Z,77.55
2018-07-25T05:00:01.670Z,77.04
2018-07-25T05:02:30.052Z,77.44
2018-07-25T05:04:58.560Z,77.37
2018-07-25T05:07:26.897Z,75.57
2018-07-25T05:09:55.212Z,75.33
2018-07-25T05:12:23.502Z,75.23
2018-07-25T05:14:51.885Z,76.08
2018-07-25T05:17:20.428Z,75.56
2018-07-25T05:19:48.797Z,74.35
2018-07-25T05:22:17.107Z,73.95
2018-07-25T05:24:45.405Z,74.25
2018-07-25T05:27:14.379Z,73.82
2018-07-25T05:29:43.561Z,74.00
2018-07-25T05:32:12.280Z,74.49
2018-07-25T05:34:40.675Z,74.73
2018-07-25T05:37:08.992Z,74.58
2018-07-25T05:39:37.298Z,74.55
2018-07-25T05:42:05.649Z,72.06
2018-07-25T05:44:34.012Z,73.35
2018-07-25T05:47:02.203Z,72.84
2018-07-25T05:49:30.649Z,73.22
2018-07-25T05:51:58.822Z,72.04
2018-07-25T05:54:27.102Z,72.00
2018-07-25T05:56:55.375Z,71.02
2018-07-25T05:59:23.618Z,70.11
2018-07-25T06:01:51.270Z,69.24
2018-07-25T06:04:18.781Z,68.54
2018-07-25T06:06:46.988Z,67.59
2018-07-25T06:09:14.536Z,66.90
2018-07-25T06:11:42.128Z,65.58
2018-07-25T06:14:09.757Z,64.46
2018-07-25T06:16:37.157Z,64.29
2018-07-25T06:19:04.699Z,63.73
2018-07-25T06:21:32.382Z,63.77
2018-07-25T06:23:59.906Z,63.48
2018-07-25T06:26:27.476Z,62.49
2018-07-25T06:28:55.119Z,62.88
2018-07-25T06:31:22.672Z,62.67
2018-07-25T06:33:50.166Z,62.25
2018-07-25T06:36:17.755Z,61.92
2018-07-25T06:38:45.264Z,61.59
2018-07-25T06:41:12.743Z,61.58
2018-07-25T06:43:40.377Z,61.67
2018-07-25T06:46:08.077Z,61.92
2018-07-25T06:48:35.828Z,61.70
2018-07-25T06:51:04.198Z,60.41
2018-07-25T06:53:32.433Z,60.60
2018-07-25T06:56:00.813Z,60.21
2018-07-25T06:58:29.252Z,59.86
2018-07-25T07:00:57.646Z,59.54
2018-07-25T07:03:25.976Z,59.60
2018-07-25T07:05:54.277Z,59.05
2018-07-25T07:08:22.531Z,58.20
2018-07-25T07:10:50.757Z,58.40
2018-07-25T07:13:19.118Z,58.63
2018-07-25T07:15:47.533Z,58.50
2018-07-25T07:18:15.830Z,58.87
2018-07-25T07:20:44.075Z,56.88
2018-07-25T07:23:12.592Z,57.40
2018-07-25T07:25:40.916Z,56.63
2018-07-25T07:28:09.171Z,56.04
2018-07-25T07:30:37.819Z,56.20
2018-07-25T07:33:06.318Z,55.27
2018-07-25T07:35:34.558Z,55.18
2018-07-25T07:38:02.778Z,55.74
2018-07-25T07:40:31.058Z,54.75
2018-07-25T07:42:59.927Z,55.78
2018-07-25T07:45:28.268Z,55.16
2018-07-25T07:47:56.615Z,53.75
2018-07-25T07:50:25.181Z,54.06
2018-07-25T07:52:53.401Z,53.24
2018-07-25T07:55:21.772Z,53.24
2018-07-25T07:57:50.216Z,52.84
2018-07-25T08:00:18.544Z,52.63
2018-07-25T08:02:47.016Z,52.08
2018-07-25T08:06:25.859Z,51.49
2018-07-25T08:08:54.267Z,50.75
2018-07-25T08:11:22.590Z,50.24
2018-07-25T08:13:51.180Z,50.38
2018-07-25T08:16:19.588Z,50.33
2018-07-25T08:18:47.841Z,50.09
2018-07-25T08:21:16.359Z,48.75
2018-07-25T08:23:44.831Z,49.54
2018-07-25T08:26:13.116Z,48.63
2018-07-25T08:28:41.383Z,48.40
2018-07-25T08:31:09.642Z,47.67
2018-07-25T08:33:37.907Z,46.39
2018-07-25T08:36:06.161Z,46.84
2018-07-25T08:38:36.992Z,47.35
2018-07-25T08:41:05.865Z,47.02
2018-07-25T08:43:34.976Z,47.69
2018-07-25T08:46:03.522Z,46.28
2018-07-25T08:48:31.740Z,46.67
2018-07-25T08:50:59.955Z,46.12
2018-07-25T08:53:29.051Z,45.67
2018-07-25T08:55:57.371Z,44.41
2018-07-25T08:58:25.626Z,44.78
2018-07-25T09:00:53.863Z,43.78
2018-07-25T09:03:22.303Z,43.83
2018-07-25T09:05:50.730Z,44.96
2018-07-25T09:08:18.958Z,44.90
2018-07-25T09:10:47.248Z,44.74
2018-07-25T09:13:15.555Z,44.23
2018-07-25T09:15:44.291Z,43.71
2018-07-25T09:18:12.692Z,43.28
2018-07-25T09:20:41.155Z,42.46
2018-07-25T09:23:09.391Z,40.61
2018-07-25T09:25:37.768Z,42.95
2018-07-25T09:28:06.279Z,42.24
2018-07-25T09:30:34.523Z,39.72
2018-07-25T09:33:02.794Z,38.60
2018-07-25T09:35:31.561Z,39.42
2018-07-25T09:38:00.935Z,39.25
2018-07-25T09:40:29.967Z,39.70
2018-07-25T09:42:58.260Z,36.55
2018-07-25T09:45:26.467Z,36.16
2018-07-25T09:47:54.686Z,38.97
2018-07-25T09:50:22.914Z,38.89
2018-07-25T09:52:51.256Z,37.03
2018-07-25T09:55:19.612Z,37.18
2018-07-25T09:57:47.993Z,38.00
2018-07-25T10:00:53.270Z,35.79
2018-07-25T10:03:21.521Z,35.94
2018-07-25T10:05:49.777Z,35.09
2018-07-25T10:08:18.633Z,32.58
2018-07-25T10:10:47.015Z,33.19
2018-07-25T10:13:29.761Z,34.02
2018-07-25T10:15:59.463Z,34.52
2018-07-25T10:18:34.219Z,33.40
2018-07-25T10:21:02.608Z,33.75
2018-07-25T10:23:30.863Z,32.69
2018-07-25T10:25:59.171Z,33.02
2018-07-25T10:28:27.469Z,32.84
2018-07-25T10:30:55.724Z,32.96
2018-07-25T10:33:24.353Z,33.80
2018-07-25T10:35:52.673Z,30.47
2018-07-25T10:38:20.905Z,32.31
2018-07-25T10:40:49.181Z,32.28
2018-07-25T10:43:17.376Z,32.15
2018-07-25T10:45:45.858Z,31.82
2018-07-25T10:48:14.081Z,29.68
2018-07-25T10:50:42.322Z,30.56
2018-07-25T10:53:10.549Z,31.48
2018-07-25T10:55:38.821Z,31.85
2018-07-25T10:58:07.095Z,32.99
2018-07-25T11:00:35.338Z,31.38
2018-07-25T11:03:03.719Z,32.99
2018-07-25T11:05:32.026Z,29.96
2018-07-25T11:08:00.247Z,29.25
2018-07-25T11:10:28.519Z,29.18
2018-07-25T11:12:56.761Z,29.54
2018-07-25T11:15:25.074Z,29.31
2018-07-25T11:17:53.327Z,28.43
2018-07-25T11:20:21.669Z,31.32
2018-07-25T11:22:50.091Z,31.60
2018-07-25T11:25:18.305Z,32.42
2018-07-25T11:27:46.519Z,31.92
2018-07-25T11:30:14.717Z,28.40
2018-07-25T11:32:43.004Z,28.73
2018-07-25T11:35:11.185Z,30.82
2018-07-25T11:37:39.988Z,29.57
2018-07-25T11:40:08.341Z,30.45
2018-07-25T11:42:36.586Z,29.28
2018-07-25T11:45:05.069Z,30.24
2018-07-25T11:47:33.278Z,27.71
2018-07-25T11:50:01.586Z,28.73
2018-07-25T11:52:30.009Z,29.05
2018-07-25T11:54:58.270Z,29.55
2018-07-25T11:57:26.505Z,28.23
2018-07-25T11:59:54.769Z,28.02
2018-07-25T12:02:23.221Z,26.88
2018-07-25T12:04:51.411Z,25.88
2018-07-25T12:07:19.809Z,25.33
2018-07-25T12:09:48.135Z,23.88
2018-07-25T12:12:16.356Z,23.96
2018-07-25T12:14:44.652Z,24.59
2018-07-25T12:17:12.956Z,24.05
2018-07-25T12:19:41.216Z,21.56
2018-07-25T12:22:09.434Z,20.94
2018-07-25T12:24:37.678Z,21.66
2018-07-25T12:27:05.977Z,19.55
2018-07-25T12:29:34.239Z,18.44
2018-07-25T12:32:02.637Z,17.83
2018-07-25T12:34:30.927Z,17.91
2018-07-25T12:36:59.315Z,17.01
2018-07-25T12:39:27.629Z,14.62
2018-07-25T12:41:55.866Z,15.58
2018-07-25T12:44:24.110Z,15.22
2018-07-25T12:46:52.444Z,15.17
2018-07-25T12:49:20.684Z,14.68
2018-07-25T12:51:48.978Z,14.46
2018-07-25T12:54:17.227Z,16.30
2018-07-25T12:56:45.871Z,17.24
2018-07-25T12:59:14.154Z,18.14
2018-07-25T13:01:42.385Z,17.14
2018-07-25T13:04:10.722Z,16.00
2018-07-25T13:06:39.306Z,14.76
2018-07-25T13:09:10.021Z,14.86
2018-07-25T13:11:38.306Z,13.43
2018-07-25T13:14:06.906Z,14.10
2018-07-25T13:16:35.195Z,13.94
2018-07-25T13:19:04.018Z,14.00
2018-07-25T13:21:32.230Z,14.08
2018-07-25T13:24:01.075Z,13.50
2018-07-25T13:26:29.292Z,12.90
2018-07-25T13:28:57.646Z,13.45
2018-07-25T13:31:26.487Z,15.65
2018-07-25T13:33:54.790Z,17.51
2018-07-25T13:36:23.041Z,19.14
2018-07-25T13:38:51.286Z,21.18
2018-07-25T13:41:19.664Z,25.78
2018-07-25T13:43:47.939Z,29.70
2018-07-25T13:46:16.410Z,31.54
2018-07-25T13:48:44.719Z,31.62
2018-07-25T13:51:12.913Z,32.63
2018-07-25T13:53:41.152Z,33.51
2018-07-25T13:56:09.540Z,30.71
2018-07-25T13:58:37.781Z,30.47
2018-07-25T14:01:06.075Z,31.65
2018-07-25T14:03:34.446Z,32.78
2018-07-25T14:06:02.851Z,33.53
2018-07-25T14:08:31.116Z,33.80
2018-07-25T14:10:59.468Z,35.08
2018-07-25T14:13:27.768Z,36.13
2018-07-25T14:15:56.071Z,35.46
2018-07-25T14:18:24.518Z,37.16
2018-07-25T14:20:52.864Z,35.31
2018-07-25T14:23:22.044Z,32.56
2018-07-25T14:25:50.458Z,34.25
2018-07-25T14:28:18.737Z,31.29
2018-07-25T14:30:47.095Z,30.68
2018-07-25T14:33:15.387Z,29.21
2018-07-25T14:35:43.624Z,29.77
2018-07-25T14:38:12.048Z,30.04
2018-07-25T14:40:40.332Z,30.09
2018-07-25T14:43:08.664Z,28.31
2018-07-25T14:45:36.881Z,29.23
2018-07-25T14:48:05.321Z,28.35
2018-07-25T14:50:33.658Z,29.17
2018-07-25T14:53:01.935Z,27.97
2018-07-25T14:55:30.282Z,29.84
2018-07-25T14:57:58.536Z,29.87
2018-07-25T15:00:26.994Z,29.77
2018-07-25T15:02:55.186Z,29.15
2018-07-25T15:05:23.589Z,31.16
2018-07-25T15:07:52.379Z,29.58
2018-07-25T15:10:20.594Z,31.18
2018-07-25T15:12:54.371Z,31.71
2018-07-25T15:15:23.210Z,31.73
2018-07-25T15:17:51.601Z,28.91
2018-07-25T15:20:19.830Z,28.92
2018-07-25T15:22:48.144Z,28.06
2018-07-25T15:25:16.342Z,27.25
2018-07-25T15:27:44.616Z,29.08
2018-07-25T15:30:13.058Z,27.25
2018-07-25T15:32:42.190Z,28.86
2018-07-25T15:35:10.949Z,27.56
2018-07-25T15:37:39.547Z,26.68
2018-07-25T15:40:08.609Z,26.46
2018-07-25T15:42:36.911Z,26.02
2018-07-25T15:45:05.731Z,26.36
2018-07-25T15:47:34.036Z,26.85
2018-07-25T15:50:02.277Z,27.31
2018-07-25T15:52:30.585Z,27.51
2018-07-25T15:54:58.870Z,27.96
2018-07-25T15:57:27.170Z,28.27
2018-07-25T15:59:55.544Z,26.51
2018-07-25T16:02:25.338Z,28.46
2018-07-25T16:04:53.987Z,26.57
2018-07-25T16:07:22.264Z,25.81
2018-07-25T16:09:50.538Z,24.86
2018-07-25T16:12:19.382Z,24.97
2018-07-25T16:14:47.594Z,24.63
2018-07-25T16:17:15.916Z,23.78
2018-07-25T16:19:44.145Z,22.04
2018-07-25T16:22:12.405Z,22.58
2018-07-25T16:24:40.858Z,20.08
2018-07-25T16:27:09.141Z,20.14
2018-07-25T16:29:37.348Z,20.03
2018-07-25T16:32:05.717Z,19.78
2018-07-25T16:34:33.961Z,19.13
2018-07-25T16:37:02.173Z,18.81
2018-07-25T16:39:30.590Z,17.33
2018-07-25T16:41:58.798Z,18.28
2018-07-25T16:44:27.033Z,18.36
2018-07-25T16:46:55.291Z,19.54
2018-07-25T16:49:23.507Z,18.96
2018-07-25T16:51:51.755Z,17.99
2018-07-25T16:54:20.028Z,17.89
2018-07-25T16:56:48.375Z,18.22
2018-07-25T16:59:16.611Z,18.53
2018-07-25T17:01:44.849Z,18.44
2018-07-25T17:04:13.170Z,19.07
2018-07-25T17:06:41.443Z,20.05
2018-07-25T17:09:11.141Z,19.39
2018-07-25T17:11:39.359Z,19.20
2018-07-25T17:14:07.600Z,19.46
2018-07-25T17:16:35.947Z,20.87
2018-07-25T17:19:04.243Z,20.25
2018-07-25T17:21:32.508Z,21.13
2018-07-25T17:24:00.775Z,21.11
2018-07-25T17:26:29.049Z,21.23
2018-07-25T17:28:57.361Z,20.28
2018-07-25T17:31:25.650Z,20.33
2018-07-25T17:33:54.009Z,20.36
2018-07-25T17:36:22.434Z,21.02
2018-07-25T17:38:50.668Z,20.41
2018-07-25T17:41:19.046Z,20.90
2018-07-25T17:43:47.370Z,20.71
2018-07-25T17:46:15.941Z,21.18
2018-07-25T17:48:44.285Z,20.62
2018-07-25T17:51:12.595Z,20.79
2018-07-25T17:53:40.938Z,20.89
2018-07-25T17:56:09.333Z,22.01
2018-07-25T17:58:37.535Z,23.31
2018-07-25T18:01:06.489Z,23.33
2018-07-25T18:03:34.834Z,25.73
2018-07-25T18:06:02.979Z,25.25
2018-07-25T18:08:31.399Z,28.08
2018-07-25T18:10:59.833Z,27.18
2018-07-25T18:13:33.478Z,27.39
2018-07-25T18:16:01.708Z,28.82
2018-07-25T18:18:29.934Z,28.01
2018-07-25T18:20:58.626Z,29.69
2018-07-25T18:23:26.910Z,29.98
2018-07-25T18:25:55.292Z,32.37
2018-07-25T18:28:23.639Z,30.76
2018-07-25T18:30:52.072Z,33.94
2018-07-25T18:33:20.594Z,32.91
2018-07-25T18:35:48.998Z,32.49
2018-07-25T18:38:17.483Z,32.86
2018-07-25T18:40:45.759Z,33.57
2018-07-25T18:43:14.108Z,32.82
2018-07-25T18:45:42.482Z,33.31
2018-07-25T18:48:11.001Z,34.30
2018-07-25T18:50:39.294Z,35.57
2018-07-25T18:53:07.732Z,34.11
2018-07-25T18:55:36.112Z,35.29
2018-07-25T18:58:04.480Z,36.72
2018-07-25T19:00:32.717Z,37.91
2018-07-25T19:03:01.584Z,37.99
2018-07-25T19:05:31.211Z,38.61
2018-07-25T19:08:00.960Z,38.75
2018-07-25T19:10:29.418Z,38.82
2018-07-25T19:12:57.680Z,40.73
2018-07-25T19:15:28.959Z,40.12
2018-07-25T19:17:58.158Z,41.16
2018-07-25T19:20:26.623Z,41.86
2018-07-25T19:22:54.879Z,40.38
2018-07-25T19:25:23.280Z,41.09
2018-07-25T19:27:52.190Z,40.89
2018-07-25T19:30:20.594Z,45.09
2018-07-25T19:32:49.123Z,42.74
2018-07-25T19:35:17.412Z,42.02
2018-07-25T19:37:45.673Z,42.31
2018-07-25T19:40:13.992Z,42.15
2018-07-25T19:42:42.288Z,42.78
2018-07-25T19:45:10.529Z,44.03
2018-07-25T19:47:38.981Z,44.75
2018-07-25T19:50:07.284Z,44.54
2018-07-25T19:52:35.709Z,44.31
2018-07-25T19:55:04.016Z,44.34
2018-07-25T19:57:32.393Z,43.77
2018-07-25T20:00:00.677Z,43.36
2018-07-25T20:02:29.100Z,44.60
2018-07-25T20:04:57.471Z,45.37
2018-07-25T20:07:25.836Z,45.92
2018-07-25T20:09:54.080Z,46.04
2018-07-25T20:12:22.367Z,47.94
2018-07-25T20:14:56.163Z,49.20
2018-07-25T20:17:24.380Z,49.56
2018-07-25T20:19:52.842Z,50.32
2018-07-25T20:22:21.130Z,52.25
2018-07-25T20:24:50.059Z,53.62
2018-07-25T20:27:18.303Z,55.14
2018-07-25T20:29:46.755Z,56.17
2018-07-25T20:32:15.567Z,56.55
2018-07-25T20:34:43.835Z,57.36
2018-07-25T20:37:12.236Z,58.21
2018-07-25T20:39:40.482Z,59.72
2018-07-25T20:42:09.134Z,59.74
2018-07-25T20:44:37.377Z,60.74
2018-07-25T20:47:05.682Z,61.54
2018-07-25T20:49:33.947Z,61.85
2018-07-25T20:52:02.218Z,61.78
2018-07-25T20:54:30.500Z,63.16
2018-07-25T20:57:00.088Z,63.32
2018-07-25T20:59:28.342Z,63.71
2018-07-25T21:01:56.972Z,63.93
2018-07-25T21:13:01.957Z,69.92
2018-07-25T21:15:30.608Z,68.72
2018-07-25T21:17:59.131Z,68.41
2018-07-25T21:20:27.900Z,64.38
2018-07-25T21:22:56.436Z,64.41
2018-07-25T21:25:24.829Z,64.93
2018-07-25T21:27:52.380Z,65.84
2018-07-25T21:30:21.133Z,65.52
2018-07-25T21:32:48.864Z,66.06
2018-07-25T21:35:16.414Z,67.23
2018-07-25T21:37:44.712Z,66.72
2018-07-25T21:40:12.302Z,67.83
2018-07-25T21:42:42.558Z,68.42
2018-07-25T21:45:10.346Z,68.78
2018-07-25T21:47:38.696Z,69.12
2018-07-25T21:50:06.639Z,69.51
2018-07-25T21:52:34.245Z,70.12
2018-07-25T21:55:02.193Z,70.16
2018-07-25T21:57:33.024Z,75.16
2018-07-25T22:00:02.339Z,77.71
2018-07-25T22:02:31.650Z,74.79
2018-07-25T22:05:04.202Z,72.75
2018-07-25T22:10:15.239Z,70.72
2018-07-25T22:12:43.600Z,69.97
2018-07-25T22:15:12.373Z,68.05
2018-07-25T22:17:41.507Z,69.40
2018-07-25T22:20:12.065Z,72.22
2018-07-25T22:22:40.732Z,71.25
2018-07-25T22:25:09.810Z,71.91
2018-07-25T22:27:38.704Z,69.45
2018-07-25T22:30:07.220Z,68.37
2018-07-25T22:32:35.501Z,70.47
2018-07-25T22:35:04.257Z,69.95
2018-07-25T22:37:32.704Z,70.35
2018-07-25T22:40:00.976Z,69.16
2018-07-25T22:42:29.149Z,68.07
2018-07-25T22:44:57.587Z,69.25
2018-07-25T22:47:25.867Z,69.67
2018-07-25T22:49:54.154Z,69.91
2018-07-25T22:52:22.465Z,70.44
2018-07-25T22:54:50.838Z,69.21
2018-07-25T22:57:19.087Z,69.84
2018-07-25T22:59:47.311Z,69.60
2018-07-25T23:02:15.762Z,69.94
2018-07-25T23:04:44.043Z,69.34
2018-07-25T23:07:12.436Z,70.11
2018-07-25T23:09:40.700Z,69.61
2018-07-25T23:12:09.132Z,67.86
2018-07-25T23:14:37.502Z,69.62
2018-07-25T23:17:06.015Z,70.65
2018-07-25T23:19:34.280Z,71.07
2018-07-25T23:22:02.639Z,70.12
2018-07-25T23:24:31.298Z,70.65
2018-07-25T23:26:59.568Z,68.45
2018-07-25T23:29:27.867Z,71.21
2018-07-25T23:31:56.950Z,71.03
2018-07-25T23:34:25.357Z,71.76
2018-07-25T23:36:53.529Z,73.53
2018-07-25T23:39:21.782Z,72.24
2018-07-25T23:41:50.075Z,73.30
2018-07-25T23:44:18.351Z,70.22
2018-07-25T23:46:46.707Z,70.98
2018-07-25T23:49:14.934Z,69.56
2018-07-25T23:51:43.202Z,70.06
2018-07-25T23:54:11.450Z,72.29
2018-07-25T23:56:40.255Z,71.72
2018-07-25T23:59:08.546Z,71.06
